Aeroporto :
LOGIN :

Iscrizione | Disclaimer

   EN    FR    IT 

 










Sommario :    VFR   VFR Marginale   IFR   IFR Intensivo   IFR Molto Intensivo
Visibilità : 
Base nubi : 
>= 8 km
>= 3000ft
5 / 8 km
1000 / 3000 ft
1500m / 5 km
500 / 1000 ft
800 / 1500m
200 / 500 ft
< 800m
< 200 ft
Simboli :   Temporali  Nebbia  Neve Forte  Precipitazioni Forti  Vento > 20 kt
SIGMETs :   Varie  Temporali  Ghiacco  Turbolenza  Onda orograficha  Ceneri Vulcaniche






- Altitudine del aeroporto : 267 ft


EGDR - Culdrose Navy

ULTIMO METAR :
  • 140624Z 14009KT 9999 FEW007 SCT010 BKN018 13/12 Q1003 NOSIG RMK GRN GRN

METARs OBSOLETI :
  • 140550Z 15009KT 9999 FEW010 BKN025 BKN100 13/11 Q1004 TEMPO SCT010 RMK BLU TEMPO GRN
  • 140450Z AUTO 15011KT 9999 // SCT012/// SCT140/// 12/11 Q1005
  • 140350Z AUTO 15014KT 9999 // FEW009/// OVC140/// 13/12 Q1005

TAF TAF EGDR
Valido dal 14 a 06 ore il 14 a 15 ore UTC


140454Z 1406/1415 14015G25KT 9999 FEW012 BKN060
TEMPO 1406/1415 8000 -RA SCT010 BKN020
PROB40
TEMPO 1409/1415 4000 RA BKN006 OVC010
BECMG 1412/1415 17013KT



MetMap, La meteo Aeronautica in un colpo d'occhio ! - Copyright ORBIFLY Dicembre 2007 - Disclaimer

ORBIFLY MET'MAP TEAM :

Programmazione e sviluppo : Alexandra Zaïnal
Concezione e sviluppo : Baudouin d'Aumeries
Co-Programmazione e sviluppo : Marc-Olivier Méhu
Supporto tecnico e logistico : Manuel Goepfert
Aiuto per la traduzione : Arnaldo La Scala

Contatto : metmap@orbifly.com




FONTI E CREDITI :

   NOAA